createdAt,value
2022-12-29T00:02:19.129Z,3.84
2022-12-29T00:05:44.202Z,3.87
2022-12-29T00:09:08.431Z,3.88
2022-12-29T00:12:47.340Z,3.89
2022-12-29T00:16:11.502Z,3.94
2022-12-29T00:19:54.614Z,3.93
2022-12-29T00:23:49.157Z,3.93
2022-12-29T00:27:35.555Z,3.98
2022-12-29T00:31:20.776Z,4.01
2022-12-29T00:35:03.416Z,4.02
2022-12-29T00:38:45.286Z,3.99
2022-12-29T00:42:36.835Z,4.03
2022-12-29T00:46:01.491Z,4.05
2022-12-29T00:49:35.154Z,4.10
2022-12-29T00:53:01.022Z,4.09
2022-12-29T00:56:26.552Z,4.06
2022-12-29T00:59:53.030Z,4.03
2022-12-29T01:03:17.495Z,4.02
2022-12-29T01:06:43.899Z,4.07
2022-12-29T01:10:13.040Z,4.12
2022-12-29T01:13:39.448Z,4.07
2022-12-29T01:17:03.499Z,4.09
2022-12-29T01:20:28.912Z,4.04
2022-12-29T01:23:52.762Z,4.07
2022-12-29T01:27:18.517Z,4.10
2022-12-29T01:30:42.569Z,4.12
2022-12-29T01:34:07.373Z,4.09
2022-12-29T01:37:31.137Z,4.13
2022-12-29T01:40:55.221Z,4.09
2022-12-29T01:44:55.849Z,4.08
2022-12-29T01:48:22.414Z,4.03
2022-12-29T01:51:51.589Z,4.02
2022-12-29T01:55:16.927Z,4.04
2022-12-29T01:58:47.467Z,4.02
2022-12-29T02:02:15.632Z,3.95
2022-12-29T02:05:45.430Z,3.95
2022-12-29T02:09:10.165Z,3.88
2022-12-29T02:12:34.359Z,3.83
2022-12-29T02:16:11.134Z,3.78
2022-12-29T02:20:13.047Z,3.80
2022-12-29T02:24:02.070Z,3.80
2022-12-29T02:27:53.208Z,3.77
2022-12-29T02:31:27.428Z,3.75
2022-12-29T02:35:02.061Z,3.69
2022-12-29T02:38:40.954Z,3.62
2022-12-29T02:42:15.849Z,3.53
2022-12-29T02:45:50.203Z,3.44
2022-12-29T02:49:21.779Z,3.34
2022-12-29T02:52:53.138Z,3.25
2022-12-29T02:56:16.598Z,3.17
2022-12-29T02:59:44.084Z,3.09
2022-12-29T03:03:28.798Z,3.05
2022-12-29T03:06:59.220Z,2.99
2022-12-29T03:10:33.575Z,2.95
2022-12-29T03:14:21.520Z,2.92
2022-12-29T03:17:54.896Z,2.91
2022-12-29T03:21:46.927Z,2.90
2022-12-29T03:25:18.395Z,2.89
2022-12-29T03:28:48.996Z,2.88
2022-12-29T03:32:15.591Z,2.82
2022-12-29T03:35:46.163Z,2.77
2022-12-29T03:39:14.123Z,2.76
2022-12-29T03:42:42.385Z,2.73
2022-12-29T03:46:06.319Z,2.68
2022-12-29T03:49:30.402Z,2.71
2022-12-29T03:52:54.505Z,2.68
2022-12-29T03:56:18.713Z,2.71
2022-12-29T03:59:43.732Z,2.80
2022-12-29T04:03:07.978Z,2.77
2022-12-29T04:06:31.846Z,2.77
2022-12-29T04:09:56.339Z,2.74
2022-12-29T04:13:20.140Z,2.76
2022-12-29T04:16:46.325Z,2.77
2022-12-29T04:20:28.528Z,2.78
2022-12-29T04:23:53.121Z,2.73
2022-12-29T04:27:16.684Z,2.74
2022-12-29T04:30:42.934Z,2.75
2022-12-29T04:34:08.699Z,2.80
2022-12-29T04:37:35.793Z,2.81
2022-12-29T04:41:02.385Z,2.78
2022-12-29T04:44:26.532Z,2.82
2022-12-29T04:47:51.796Z,2.85
2022-12-29T04:51:17.272Z,2.82
2022-12-29T04:54:42.089Z,2.83
2022-12-29T04:58:06.393Z,2.82
2022-12-29T05:01:31.691Z,2.82
2022-12-29T05:04:56.291Z,2.86
2022-12-29T05:08:27.636Z,2.84
2022-12-29T05:11:52.426Z,2.84
2022-12-29T05:15:16.019Z,2.86
2022-12-29T05:18:40.114Z,2.91
2022-12-29T05:22:04.169Z,2.87
2022-12-29T05:25:30.879Z,2.90
2022-12-29T05:28:54.177Z,2.84
2022-12-29T05:32:18.227Z,2.95
2022-12-29T05:35:42.646Z,2.92
2022-12-29T05:39:08.868Z,3.06
2022-12-29T05:42:34.044Z,3.04
2022-12-29T05:45:59.176Z,3.04
2022-12-29T05:49:23.073Z,3.05
2022-12-29T05:52:47.677Z,3.01
2022-12-29T05:56:11.665Z,3.08
2022-12-29T05:59:37.014Z,3.17
2022-12-29T06:03:01.318Z,3.23
2022-12-29T06:06:25.671Z,3.26
2022-12-29T06:09:49.907Z,3.30
2022-12-29T06:13:13.831Z,3.32
2022-12-29T06:16:41.603Z,3.26
2022-12-29T06:20:06.112Z,3.23
2022-12-29T06:23:30.052Z,3.26
2022-12-29T06:26:53.934Z,3.34
2022-12-29T06:30:18.305Z,3.42
2022-12-29T06:33:48.239Z,3.48
2022-12-29T06:37:14.415Z,3.48
2022-12-29T06:40:38.621Z,3.46
2022-12-29T06:44:02.056Z,3.46
2022-12-29T06:47:26.311Z,3.48
2022-12-29T06:50:51.522Z,3.48
2022-12-29T06:54:15.693Z,3.48
2022-12-29T06:57:39.426Z,3.45
2022-12-29T07:01:03.720Z,3.52
2022-12-29T07:04:27.627Z,3.50
2022-12-29T07:07:53.536Z,3.50
2022-12-29T07:11:17.360Z,3.55
2022-12-29T07:14:43.530Z,3.61
2022-12-29T07:18:07.659Z,3.65
2022-12-29T07:21:31.683Z,3.70
2022-12-29T07:24:56.900Z,3.74
2022-12-29T07:28:20.946Z,3.82
2022-12-29T07:31:44.926Z,3.95
2022-12-29T07:35:13.138Z,3.97
2022-12-29T07:38:37.167Z,3.98
2022-12-29T07:42:05.315Z,4.01
2022-12-29T07:45:29.273Z,4.06
2022-12-29T07:48:53.577Z,4.10
2022-12-29T07:52:17.502Z,4.16
2022-12-29T07:55:42.099Z,4.25
2022-12-29T07:59:07.020Z,4.36
2022-12-29T08:02:31.212Z,4.48
2022-12-29T08:05:55.248Z,4.70
2022-12-29T08:09:22.764Z,4.95
2022-12-29T08:12:47.932Z,5.13
2022-12-29T08:16:13.603Z,5.23
2022-12-29T08:19:37.448Z,5.26
2022-12-29T08:23:01.265Z,5.27
2022-12-29T08:29:52.407Z,5.26
2022-12-29T08:33:16.421Z,5.29
2022-12-29T08:36:40.251Z,5.31
2022-12-29T08:40:05.166Z,5.29
2022-12-29T08:43:30.188Z,5.35
2022-12-29T08:46:55.824Z,5.35
2022-12-29T08:50:19.811Z,5.36
2022-12-29T08:53:47.084Z,5.30
2022-12-29T08:57:10.881Z,5.33
2022-12-29T09:00:37.441Z,5.40
2022-12-29T09:04:18.590Z,5.47
2022-12-29T09:07:43.073Z,5.64
2022-12-29T09:11:11.583Z,5.79
2022-12-29T09:14:35.696Z,5.88
2022-12-29T09:17:59.484Z,5.89
2022-12-29T09:21:27.599Z,5.87
2022-12-29T09:24:51.753Z,5.94
2022-12-29T09:28:15.933Z,5.86
2022-12-29T09:31:40.057Z,5.75
2022-12-29T09:35:04.915Z,5.73
2022-12-29T09:38:30.939Z,5.77
2022-12-29T09:42:01.614Z,5.78
2022-12-29T09:45:33.271Z,5.87
2022-12-29T09:49:09.307Z,6.00
2022-12-29T09:52:38.558Z,6.11
2022-12-29T09:56:05.042Z,6.14
2022-12-29T09:59:40.731Z,6.21
2022-12-29T10:03:13.178Z,6.27
2022-12-29T10:07:11.082Z,6.50
2022-12-29T10:10:40.486Z,6.89
2022-12-29T10:14:23.926Z,7.05
2022-12-29T10:17:56.703Z,7.06
2022-12-29T10:21:23.395Z,7.14
2022-12-29T10:24:49.834Z,7.19
2022-12-29T10:28:22.361Z,7.16
2022-12-29T10:31:50.499Z,7.20
2022-12-29T10:35:17.441Z,7.07
2022-12-29T10:38:48.564Z,6.95
2022-12-29T10:42:16.676Z,6.91
2022-12-29T10:45:42.768Z,6.97
2022-12-29T10:49:08.581Z,7.03
2022-12-29T10:52:35.795Z,7.13
2022-12-29T10:56:03.108Z,7.22
2022-12-29T10:59:29.800Z,7.26
2022-12-29T11:03:12.163Z,7.18
2022-12-29T11:06:40.575Z,7.19
2022-12-29T11:10:24.053Z,7.25
2022-12-29T11:13:51.276Z,7.28
2022-12-29T11:17:19.063Z,7.26
2022-12-29T11:20:44.062Z,7.35
2022-12-29T11:24:23.812Z,7.28
2022-12-29T11:28:02.521Z,7.28
2022-12-29T11:31:28.721Z,7.26
2022-12-29T11:34:53.229Z,7.24
2022-12-29T11:38:23.298Z,7.20
2022-12-29T11:41:55.054Z,7.15
2022-12-29T11:45:21.175Z,7.11
2022-12-29T11:48:46.020Z,7.14
2022-12-29T11:52:10.638Z,7.21
2022-12-29T11:55:35.286Z,7.19
2022-12-29T11:59:00.598Z,7.15
2022-12-29T12:02:46.865Z,7.13
2022-12-29T12:06:18.195Z,7.15
2022-12-29T12:09:47.902Z,7.17
2022-12-29T12:13:21.018Z,7.21
2022-12-29T12:16:53.225Z,7.30
2022-12-29T12:20:23.212Z,7.27
2022-12-29T12:24:16.374Z,7.27
2022-12-29T12:27:46.228Z,7.29
2022-12-29T12:31:21.828Z,7.35
2022-12-29T12:34:50.539Z,7.42
2022-12-29T12:38:28.976Z,7.48
2022-12-29T12:42:02.124Z,7.58
2022-12-29T12:45:38.742Z,7.63
2022-12-29T12:49:43.659Z,7.57
2022-12-29T12:53:27.387Z,7.55
2022-12-29T12:57:02.396Z,7.59
2022-12-29T13:00:27.533Z,7.54
2022-12-29T13:04:05.956Z,7.46
2022-12-29T13:07:41.869Z,7.41
2022-12-29T13:11:19.393Z,7.38
2022-12-29T13:14:54.784Z,7.37
2022-12-29T13:18:27.852Z,7.41
2022-12-29T13:22:06.348Z,7.42
2022-12-29T13:25:39.280Z,7.36
2022-12-29T13:29:15.791Z,7.32
2022-12-29T13:32:52.281Z,7.32
2022-12-29T13:36:28.684Z,7.42
2022-12-29T13:39:55.286Z,7.30
2022-12-29T13:43:27.802Z,7.25
2022-12-29T13:46:58.593Z,7.24
2022-12-29T13:50:25.637Z,7.20
2022-12-29T13:54:06.182Z,7.17
2022-12-29T13:57:41.455Z,7.18
2022-12-29T14:01:13.162Z,7.21
2022-12-29T14:04:58.261Z,7.23
2022-12-29T14:08:21.825Z,7.24
2022-12-29T14:11:46.236Z,7.31
2022-12-29T14:15:25.909Z,7.33
2022-12-29T14:18:50.468Z,7.29
2022-12-29T14:22:15.577Z,7.33
2022-12-29T14:26:01.375Z,7.31
2022-12-29T14:29:46.707Z,7.28
2022-12-29T14:33:16.363Z,7.25
2022-12-29T14:36:42.467Z,7.18
2022-12-29T14:40:19.938Z,7.11
2022-12-29T14:43:58.480Z,7.06
2022-12-29T14:47:27.517Z,7.06
2022-12-29T14:50:52.406Z,7.10
2022-12-29T14:54:47.610Z,6.99
2022-12-29T14:58:19.805Z,6.95
2022-12-29T15:01:49.755Z,6.96
2022-12-29T15:05:30.269Z,6.94
2022-12-29T15:08:59.623Z,6.90
2022-12-29T15:12:32.626Z,6.90
2022-12-29T15:15:58.424Z,6.96
2022-12-29T15:19:26.931Z,7.00
2022-12-29T15:22:55.507Z,6.97
2022-12-29T15:26:23.662Z,6.87
2022-12-29T15:29:49.150Z,6.70
2022-12-29T15:33:23.403Z,6.57
2022-12-29T15:36:47.313Z,6.43
2022-12-29T15:40:25.488Z,6.22
2022-12-29T15:44:00.438Z,5.99
2022-12-29T15:47:27.093Z,5.87
2022-12-29T15:50:53.888Z,5.87
2022-12-29T15:54:20.197Z,5.71
2022-12-29T15:57:47.400Z,5.64
2022-12-29T16:01:21.057Z,5.59
2022-12-29T16:05:09.178Z,5.67
2022-12-29T16:08:39.361Z,5.58
2022-12-29T16:12:07.406Z,5.35
2022-12-29T16:15:33.592Z,5.20
2022-12-29T16:18:58.669Z,5.31
2022-12-29T16:22:29.302Z,5.28
2022-12-29T16:25:58.769Z,5.29
2022-12-29T16:29:24.256Z,5.29
2022-12-29T16:32:49.380Z,5.47
2022-12-29T16:36:33.124Z,5.52
2022-12-29T16:39:57.107Z,5.61
2022-12-29T16:43:26.876Z,5.82
2022-12-29T16:47:08.503Z,5.94
2022-12-29T16:50:35.292Z,6.03
2022-12-29T16:54:01.533Z,6.07
2022-12-29T16:57:31.629Z,6.15
2022-12-29T17:00:58.415Z,6.28
2022-12-29T17:04:22.257Z,6.30
2022-12-29T17:07:46.799Z,6.30
2022-12-29T17:11:40.202Z,6.30
2022-12-29T17:15:09.516Z,6.32
2022-12-29T17:18:35.065Z,6.38
2022-12-29T17:21:59.388Z,6.39
2022-12-29T17:25:25.656Z,6.36
2022-12-29T17:28:50.139Z,6.41
2022-12-29T17:32:16.015Z,6.40
2022-12-29T17:35:41.524Z,6.46
2022-12-29T17:39:06.887Z,6.50
2022-12-29T17:42:33.204Z,6.50
2022-12-29T17:45:59.051Z,6.43
2022-12-29T17:49:23.704Z,6.39
2022-12-29T17:52:53.160Z,6.31
2022-12-29T17:56:17.403Z,6.35
2022-12-29T17:59:44.219Z,6.41
2022-12-29T18:03:10.803Z,6.19
2022-12-29T18:06:35.161Z,5.87
2022-12-29T18:10:00.582Z,5.62
2022-12-29T18:13:30.748Z,5.55
2022-12-29T18:17:00.036Z,5.44
2022-12-29T18:20:26.576Z,5.38
2022-12-29T18:23:51.190Z,5.45
2022-12-29T18:27:17.971Z,5.40
2022-12-29T18:30:44.744Z,5.61
2022-12-29T18:34:15.868Z,5.62
2022-12-29T18:37:39.933Z,5.70
2022-12-29T18:41:03.717Z,5.82
2022-12-29T18:44:29.181Z,5.85
2022-12-29T18:47:53.230Z,5.84
2022-12-29T18:51:18.891Z,5.75
2022-12-29T18:54:45.428Z,5.79
2022-12-29T18:58:09.303Z,5.76
2022-12-29T19:01:35.437Z,5.70
2022-12-29T19:05:06.812Z,5.64
2022-12-29T19:08:31.129Z,5.70
2022-12-29T19:11:55.506Z,5.71
2022-12-29T19:15:24.624Z,5.81
2022-12-29T19:19:07.916Z,5.96
2022-12-29T19:22:33.075Z,5.92
2022-12-29T19:25:59.391Z,5.91
2022-12-29T19:29:23.294Z,5.99
2022-12-29T19:32:50.291Z,6.08
2022-12-29T19:36:17.235Z,6.17
2022-12-29T19:39:41.462Z,6.23
2022-12-29T19:43:05.598Z,6.32
2022-12-29T19:46:32.785Z,6.29
2022-12-29T19:49:56.669Z,6.32
2022-12-29T19:53:22.824Z,6.28
2022-12-29T19:56:46.607Z,6.30
2022-12-29T20:00:12.154Z,6.34
2022-12-29T20:03:36.513Z,6.31
2022-12-29T20:07:00.552Z,6.38
2022-12-29T20:10:25.728Z,6.38
2022-12-29T20:13:51.517Z,6.36
2022-12-29T20:17:27.266Z,6.37
2022-12-29T20:21:05.389Z,6.27
2022-12-29T20:24:29.473Z,6.20
2022-12-29T20:27:54.987Z,6.14
2022-12-29T20:31:22.386Z,5.95
2022-12-29T20:34:46.771Z,5.79
2022-12-29T20:38:10.822Z,5.93
2022-12-29T20:41:35.250Z,6.00
2022-12-29T20:45:00.576Z,6.24
2022-12-29T20:48:24.574Z,6.23
2022-12-29T20:52:05.844Z,6.21
2022-12-29T20:55:31.132Z,6.17
2022-12-29T21:02:41.661Z,6.26
2022-12-29T21:06:06.179Z,6.39
2022-12-29T21:09:30.512Z,6.49
2022-12-29T21:12:54.312Z,6.47
2022-12-29T21:16:21.473Z,6.54
2022-12-29T21:19:46.990Z,6.56
2022-12-29T21:23:11.635Z,6.66
2022-12-29T21:26:36.024Z,6.71
2022-12-29T21:30:00.327Z,6.74
2022-12-29T21:33:24.352Z,6.74
2022-12-29T21:36:50.017Z,6.66
2022-12-29T21:40:14.250Z,6.60
2022-12-29T21:43:39.511Z,6.63
2022-12-29T21:47:03.339Z,6.65
2022-12-29T21:50:28.924Z,6.68
2022-12-29T21:54:19.892Z,6.67
2022-12-29T21:58:01.415Z,6.70
2022-12-29T22:01:43.760Z,6.77
2022-12-29T22:05:26.761Z,6.75
2022-12-29T22:09:07.874Z,6.75
2022-12-29T22:12:51.102Z,6.84
2022-12-29T22:16:15.985Z,6.72
2022-12-29T22:19:40.213Z,6.58
2022-12-29T22:23:04.142Z,6.53
2022-12-29T22:26:28.403Z,6.52
2022-12-29T22:29:54.002Z,6.50
2022-12-29T22:33:18.311Z,6.46
2022-12-29T22:36:42.088Z,6.39
2022-12-29T22:40:07.302Z,6.24
2022-12-29T22:43:31.162Z,6.18
2022-12-29T22:46:59.885Z,6.10
2022-12-29T22:50:23.910Z,6.14
2022-12-29T22:53:50.293Z,6.12
2022-12-29T22:57:14.074Z,6.24
2022-12-29T23:00:38.316Z,6.31
2022-12-29T23:04:47.216Z,6.37
2022-12-29T23:07:56.285Z,6.36
2022-12-29T23:11:20.593Z,6.36
2022-12-29T23:14:44.715Z,6.29
2022-12-29T23:18:08.723Z,6.15
2022-12-29T23:21:34.362Z,6.01
2022-12-29T23:24:58.483Z,5.91
2022-12-29T23:28:22.469Z,5.79
2022-12-29T23:31:46.489Z,5.70
2022-12-29T23:35:11.896Z,5.67
2022-12-29T23:38:37.614Z,5.55
2022-12-29T23:42:01.636Z,5.42
2022-12-29T23:45:25.103Z,5.55
2022-12-29T23:48:49.548Z,5.58
2022-12-29T23:52:13.437Z,5.67
2022-12-29T23:55:40.210Z,5.73
2022-12-29T23:59:05.214Z,5.76
